< < Back
Terminal Aerodrome Forecast


Current Version              Previous Versions:   1  2  3  4  5  6  7  8  9  

Terminal Aerodrome Forecast

361
FTUS42 KJAX 261440 AAC
TAFJAX
TAF AMD
KJAX 261440Z 2615/2712 VRB05KT P6SM VCTS SCT070CB BKN120
      TEMPO 2615/2616 VRB10G25KT 3SM TSRA OVC040CB
     FM261600 02010KT P6SM VCTS SCT030CB BKN050
      TEMPO 2616/2618 6SM TSRA OVC040CB
     FM262000 07011KT P6SM VCTS SCT040CB BKN250
     FM262300 08004KT P6SM SCT100 BKN250=

Latest METAR

685
SAUS80 KWBC 271100 CCA
MTRJAX
METAR KJAX 271056Z 32003KT 6SM BR FEW011 SCT080 BKN250 23/23 A3008 RMK
AO2 SLP186 T02330233 $


USA.gov is the U.S. government's official web portal to all federal, state and local government web resources and services.